Sea Voyager — V7QU2 — position and weather

sailwx.info

Track history (hours):
 
Tides and Currents Weather Stations Pressure Air Temp Water Temp Dewpoint Dewpoint Depression Visibility Wind Speed Wind Dir Waves Ship Positions

Sea Voyager

Last reported at 2014-Oct-25 15:33 UTC. Time now 2014-Oct-25 16:04 UTC.
Position N 31°55' W 118°43'.

Length 243 m; draft 8.8 m.

Type: Ship (hazmat cat A). MMSI: 538003439.

Date/timePositionNaut miles runAvg speedWind from/ knotsBaromVisibWave heightAir tempDewpointWater temp
2014-Oct-25 15:33N 31°55' W 118°43'4 4.0
2014-Oct-25 14:33N 31°57' W 118°47'5 3.8
2014-Oct-25 13:22N 32°00' W 118°51'1 1.4
2014-Oct-25 12:33N 32°00' W 118°52'2 1.5
2014-Oct-25 11:31N 32°01' W 118°54'2 1.8
2014-Oct-25 10:33N 32°01' W 118°56'1 1.0
2014-Oct-25 09:29N 32°01' W 118°57'1 1.3
2014-Oct-25 08:32N 32°01' W 118°59'2 1.3
2014-Oct-25 07:14N 31°60' W 119°01'5 5.8
2014-Oct-25 06:26N 31°57' W 119°05'8 9.4
2014-Oct-25 05:31N 31°55' W 119°15'13013.0
2014-Oct-24 19:33N 31°15' W 121°40'1312.7
2014-Oct-24 18:33N 31°12' W 121°55'1512.7
2014-Oct-24 17:23N 31°07' W 122°11'  
2014-Oct-19 23:32N 37°28' W 123°17'1212.4
2014-Oct-19 22:33N 37°35' W 123°04'1212.4
2014-Oct-19 21:33N 37°41' W 122°51'1110.6
2014-Oct-19 20:33N 37°46' W 122°39'1212.2
2014-Oct-19 19:33N 37°50' W 122°24'6 5.4
2014-Oct-19 18:31N 37°45' W 122°21'0 0.2
2014-Oct-19 17:31N 37°45' W 122°20'0 0.0
2014-Oct-19 16:31N 37°45' W 122°20'0 0.0
2014-Oct-19 15:31N 37°45' W 122°20'0 0.0
2014-Oct-19 14:31N 37°45' W 122°20'0 0.0
2014-Oct-19 13:31N 37°45' W 122°20'0 0.0
2014-Oct-19 12:31N 37°45' W 122°20'0 0.2
2014-Oct-19 11:31N 37°45' W 122°21'0 0.0
2014-Oct-19 10:31N 37°45' W 122°21'0 0.3
2014-Oct-19 09:33N 37°45' W 122°21'1211.6
2014-Oct-19 08:33N 37°56' W 122°27'1312.7
2014-Oct-19 07:33N 38°04' W 122°14'5 0.2
2014-Oct-18 03:20N 38°02' W 122°08'5 5.8
2014-Oct-18 02:30N 38°04' W 122°14'9 9.8
2014-Oct-18 01:33N 38°00' W 122°25'1010.3
2014-Oct-18 00:33N 37°50' W 122°24'5 4.6
2014-Oct-17 23:32N 37°46' W 122°21'0 0.2
2014-Oct-17 22:32N 37°46' W 122°21'0 0.0
2014-Oct-17 21:32N 37°46' W 122°21'0 0.0
2014-Oct-17 20:32N 37°46' W 122°21'0 0.0
2014-Oct-17 19:32N 37°46' W 122°21'0 0.0
2014-Oct-17 18:32N 37°46' W 122°21'0 0.0
2014-Oct-17 17:32N 37°46' W 122°21'0 0.1
2014-Oct-17 16:32N 37°46' W 122°21'0 0.2
2014-Oct-17 15:32N 37°46' W 122°21'0 0.0
2014-Oct-17 14:32N 37°46' W 122°21'0 0.0
2014-Oct-17 13:32N 37°46' W 122°21'0 0.0
2014-Oct-17 12:32N 37°46' W 122°21'0 0.0
2014-Oct-17 11:32N 37°46' W 122°21'0 0.1
2014-Oct-17 10:32N 37°46' W 122°21'0 0.2
2014-Oct-17 09:32N 37°46' W 122°21'0 0.1
2014-Oct-17 08:32N 37°46' W 122°21'0 0.0
2014-Oct-17 07:32N 37°46' W 122°21'0 0.0
2014-Oct-17 06:32N 37°46' W 122°21'0 0.0
2014-Oct-17 05:32N 37°46' W 122°21'0 0.0
2014-Oct-17 04:32N 37°46' W 122°21'0 0.0
2014-Oct-17 03:32N 37°46' W 122°21'0 0.2
2014-Oct-17 02:32N 37°46' W 122°21'0 0.0
2014-Oct-17 01:32N 37°46' W 122°21'0 0.1
2014-Oct-17 00:32N 37°46' W 122°21'0 0.0
2014-Oct-16 23:32N 37°46' W 122°21'0 0.0
2014-Oct-16 22:32N 37°46' W 122°21'0 0.1
2014-Oct-16 21:32N 37°46' W 122°21'0 0.2
2014-Oct-16 20:32N 37°46' W 122°21'0 0.0
2014-Oct-16 19:32N 37°46' W 122°21'0 0.0
2014-Oct-16 18:32N 37°46' W 122°21'0 0.0
2014-Oct-16 17:32N 37°46' W 122°21'0 0.1
2014-Oct-16 16:32N 37°46' W 122°21'0 0.2
2014-Oct-16 15:32N 37°46' W 122°21'0 0.1
2014-Oct-16 14:32N 37°46' W 122°21'0 0.0
2014-Oct-16 13:32N 37°46' W 122°21'0 0.0
2014-Oct-16 12:32N 37°46' W 122°21'0 0.0
2014-Oct-16 11:32N 37°46' W 122°21'0 0.0
2014-Oct-16 10:32N 37°46' W 122°21'0 0.0
2014-Oct-16 09:32N 37°46' W 122°21'0 0.2
2014-Oct-16 08:32N 37°46' W 122°21'0 0.1
2014-Oct-16 07:32N 37°46' W 122°21'0 0.0
2014-Oct-16 06:32N 37°46' W 122°21'0 0.0
2014-Oct-16 05:32N 37°46' W 122°21'0 0.0
2014-Oct-16 04:32N 37°46' W 122°21'0 0.0
2014-Oct-16 03:32N 37°46' W 122°21'0 0.1
2014-Oct-16 02:32N 37°46' W 122°21'0 0.2
2014-Oct-16 01:32N 37°46' W 122°21'1 1.2
2014-Oct-16 00:33N 37°47' W 122°22'10 9.6
2014-Oct-15 23:33N 37°55' W 122°27'9 9.4
2014-Oct-15 22:33N 38°03' W 122°20'9 8.6
2014-Oct-15 21:32N 38°02' W 122°09'  
Track history (hours):
 
Tides and Currents Weather Stations Pressure Air Temp Water Temp Dewpoint Dewpoint Depression Visibility Wind Speed Wind Dir Waves Ship Positions

Sea Voyager

Last reported at 2014-Oct-25 15:33 UTC. Time now 2014-Oct-25 16:04 UTC.
Position N 31°55' W 118°43'.

Length 243 m; draft 8.8 m.

Type: Ship (hazmat cat A). MMSI: 538003439.

Date/timePositionNaut miles runAvg speedWind from/ knotsBaromVisibWave heightAir tempDewpointWater temp
2014-Oct-25 15:33N 31°55' W 118°43'4 4.0
2014-Oct-25 14:33N 31°57' W 118°47'5 3.8
2014-Oct-25 13:22N 32°00' W 118°51'1 1.4
2014-Oct-25 12:33N 32°00' W 118°52'2 1.5
2014-Oct-25 11:31N 32°01' W 118°54'2 1.8
2014-Oct-25 10:33N 32°01' W 118°56'1 1.0
2014-Oct-25 09:29N 32°01' W 118°57'1 1.3
2014-Oct-25 08:32N 32°01' W 118°59'2 1.3
2014-Oct-25 07:14N 31°60' W 119°01'5 5.8
2014-Oct-25 06:26N 31°57' W 119°05'8 9.4
2014-Oct-25 05:31N 31°55' W 119°15'13013.0
2014-Oct-24 19:33N 31°15' W 121°40'1312.7
2014-Oct-24 18:33N 31°12' W 121°55'1512.7
2014-Oct-24 17:23N 31°07' W 122°11'  
2014-Oct-19 23:32N 37°28' W 123°17'1212.4
2014-Oct-19 22:33N 37°35' W 123°04'1212.4
2014-Oct-19 21:33N 37°41' W 122°51'1110.6
2014-Oct-19 20:33N 37°46' W 122°39'1212.2
2014-Oct-19 19:33N 37°50' W 122°24'6 5.4
2014-Oct-19 18:31N 37°45' W 122°21'0 0.2
2014-Oct-19 17:31N 37°45' W 122°20'0 0.0
2014-Oct-19 16:31N 37°45' W 122°20'0 0.0
2014-Oct-19 15:31N 37°45' W 122°20'0 0.0
2014-Oct-19 14:31N 37°45' W 122°20'0 0.0
2014-Oct-19 13:31N 37°45' W 122°20'0 0.0
2014-Oct-19 12:31N 37°45' W 122°20'0 0.2
2014-Oct-19 11:31N 37°45' W 122°21'0 0.0
2014-Oct-19 10:31N 37°45' W 122°21'0 0.3
2014-Oct-19 09:33N 37°45' W 122°21'1211.6
2014-Oct-19 08:33N 37°56' W 122°27'1312.7
2014-Oct-19 07:33N 38°04' W 122°14'5 0.2
2014-Oct-18 03:20N 38°02' W 122°08'5 5.8
2014-Oct-18 02:30N 38°04' W 122°14'9 9.8
2014-Oct-18 01:33N 38°00' W 122°25'1010.3
2014-Oct-18 00:33N 37°50' W 122°24'5 4.6
2014-Oct-17 23:32N 37°46' W 122°21'0 0.2
2014-Oct-17 22:32N 37°46' W 122°21'0 0.0
2014-Oct-17 21:32N 37°46' W 122°21'0 0.0
2014-Oct-17 20:32N 37°46' W 122°21'0 0.0
2014-Oct-17 19:32N 37°46' W 122°21'0 0.0
2014-Oct-17 18:32N 37°46' W 122°21'0 0.0
2014-Oct-17 17:32N 37°46' W 122°21'0 0.1
2014-Oct-17 16:32N 37°46' W 122°21'0 0.2
2014-Oct-17 15:32N 37°46' W 122°21'0 0.0
2014-Oct-17 14:32N 37°46' W 122°21'0 0.0
2014-Oct-17 13:32N 37°46' W 122°21'0 0.0
2014-Oct-17 12:32N 37°46' W 122°21'0 0.0
2014-Oct-17 11:32N 37°46' W 122°21'0 0.1
2014-Oct-17 10:32N 37°46' W 122°21'0 0.2
2014-Oct-17 09:32N 37°46' W 122°21'0 0.1
2014-Oct-17 08:32N 37°46' W 122°21'0 0.0
2014-Oct-17 07:32N 37°46' W 122°21'0 0.0
2014-Oct-17 06:32N 37°46' W 122°21'0 0.0
2014-Oct-17 05:32N 37°46' W 122°21'0 0.0
2014-Oct-17 04:32N 37°46' W 122°21'0 0.0
2014-Oct-17 03:32N 37°46' W 122°21'0 0.2
2014-Oct-17 02:32N 37°46' W 122°21'0 0.0
2014-Oct-17 01:32N 37°46' W 122°21'0 0.1
2014-Oct-17 00:32N 37°46' W 122°21'0 0.0
2014-Oct-16 23:32N 37°46' W 122°21'0 0.0
2014-Oct-16 22:32N 37°46' W 122°21'0 0.1
2014-Oct-16 21:32N 37°46' W 122°21'0 0.2
2014-Oct-16 20:32N 37°46' W 122°21'0 0.0
2014-Oct-16 19:32N 37°46' W 122°21'0 0.0
2014-Oct-16 18:32N 37°46' W 122°21'0 0.0
2014-Oct-16 17:32N 37°46' W 122°21'0 0.1
2014-Oct-16 16:32N 37°46' W 122°21'0 0.2
2014-Oct-16 15:32N 37°46' W 122°21'0 0.1
2014-Oct-16 14:32N 37°46' W 122°21'0 0.0
2014-Oct-16 13:32N 37°46' W 122°21'0 0.0
2014-Oct-16 12:32N 37°46' W 122°21'0 0.0
2014-Oct-16 11:32N 37°46' W 122°21'0 0.0
2014-Oct-16 10:32N 37°46' W 122°21'0 0.0
2014-Oct-16 09:32N 37°46' W 122°21'0 0.2
2014-Oct-16 08:32N 37°46' W 122°21'0 0.1
2014-Oct-16 07:32N 37°46' W 122°21'0 0.0
2014-Oct-16 06:32N 37°46' W 122°21'0 0.0
2014-Oct-16 05:32N 37°46' W 122°21'0 0.0
2014-Oct-16 04:32N 37°46' W 122°21'0 0.0
2014-Oct-16 03:32N 37°46' W 122°21'0 0.1
2014-Oct-16 02:32N 37°46' W 122°21'0 0.2
2014-Oct-16 01:32N 37°46' W 122°21'1 1.2
2014-Oct-16 00:33N 37°47' W 122°22'10 9.6
2014-Oct-15 23:33N 37°55' W 122°27'9 9.4
2014-Oct-15 22:33N 38°03' W 122°20'9 8.6
2014-Oct-15 21:32N 38°02' W 122°09'  

Dump ship's entire track history